Time;durP1;ratioP1;P1;durP2;ratioP2;P2;SDS_P1;SDS_P2;PMS_P1;PMS_P2;Temp;Humidity;BMP_temperature;BMP_pressure;BME280_temperature;BME280_humidity;BME280_pressure;Samples;Min_cycle;Max_cycle;Signal;HPM_P1;HPM_P2
2022/02/19 00:00:26;;;;;;;11.05;10.03;;;;;;;4.45;64.27;100521.41;459643;114;922653;-84
2022/02/19 00:01:30;;;;;;;10.37;9.32;;;;;;;4.46;64.32;100520.40;457673;112;930684;-83
2022/02/19 00:02:33;;;;;;;9.73;8.91;;;;;;;4.47;64.32;100527.45;458123;114;930349;-83
2022/02/19 00:03:36;;;;;;;9.45;8.65;;;;;;;4.49;64.27;100521.89;458495;113;923191;-84
2022/02/19 00:04:39;;;;;;;10.00;9.02;;;;;;;4.49;64.33;100522.73;459169;114;923296;-83
2022/02/19 00:05:42;;;;;;;9.64;8.75;;;;;;;4.52;64.33;100526.95;458460;114;923464;-83
2022/02/19 00:06:45;;;;;;;9.48;8.56;;;;;;;4.52;64.29;100530.46;459515;113;922737;-84
2022/02/19 00:07:49;;;;;;;9.32;8.45;;;;;;;4.52;64.18;100522.36;458475;114;922683;-85
2022/02/19 00:08:52;;;;;;;9.39;8.56;;;;;;;4.51;64.07;100525.27;459177;114;922567;-84
2022/02/19 00:09:55;;;;;;;9.59;8.44;;;;;;;4.50;64.00;100527.12;459200;113;922832;-84
2022/02/19 00:10:58;;;;;;;8.10;7.34;;;;;;;4.50;64.06;100529.81;449171;117;923238;-85
2022/02/19 00:12:02;;;;;;;8.70;7.76;;;;;;;4.49;64.12;100530.83;451635;115;922742;-82
2022/02/19 00:13:05;;;;;;;8.93;8.02;;;;;;;4.50;64.12;100537.08;449011;117;923056;-84
2022/02/19 00:14:08;;;;;;;12.01;7.51;;;;;;;4.49;64.22;100528.13;446388;116;922857;-84
2022/02/19 00:15:11;;;;;;;10.27;8.13;;;;;;;4.51;64.13;100533.36;449405;117;930456;-83
2022/02/19 00:16:15;;;;;;;9.86;8.19;;;;;;;4.51;64.10;100536.91;446729;117;922660;-84
2022/02/19 00:17:22;;;;;;;9.32;8.42;;;;;;;4.52;64.14;100533.16;445639;117;922804;-84
2022/02/19 00:18:25;;;;;;;9.42;8.56;;;;;;;4.54;64.16;100536.54;445932;116;930569;-84
2022/02/19 00:19:30;;;;;;;11.12;8.91;;;;;;;4.56;64.28;100534.52;445844;116;922873;-83
2022/02/19 00:20:33;;;;;;;9.89;7.62;;;;;;;4.60;64.30;100535.83;446709;117;922568;-83
2022/02/19 00:21:37;;;;;;;8.26;7.50;;;;;;;4.63;64.27;100535.47;449340;116;922784;-84
2022/02/19 00:22:41;;;;;;;7.89;7.11;;;;;;;4.67;64.26;100537.83;443682;117;923492;-83
2022/02/19 00:23:44;;;;;;;7.61;6.19;;;;;;;4.70;64.20;100541.00;450286;116;923109;-83
2022/02/19 00:24:49;;;;;;;9.26;7.03;;;;;;;4.74;64.16;100533.41;449333;117;923315;-82
2022/02/19 00:25:53;;;;;;;6.81;6.06;;;;;;;4.76;64.00;100537.59;446800;116;922469;-84
2022/02/19 00:26:57;;;;;;;9.91;6.25;;;;;;;4.80;63.99;100546.17;445641;117;922621;-85
2022/02/19 00:28:00;;;;;;;15.16;6.26;;;;;;;4.81;63.87;100545.16;450132;115;922616;-85
2022/02/19 00:29:05;;;;;;;12.92;6.40;;;;;;;4.83;63.74;100545.83;447282;117;930078;-84
2022/02/19 00:30:11;;;;;;;14.96;6.09;;;;;;;4.83;63.69;100549.37;447541;116;922616;-84
2022/02/19 00:31:14;;;;;;;11.84;6.87;;;;;;;4.84;63.52;100547.52;448586;115;922621;-83
2022/02/19 00:32:17;;;;;;;10.44;6.13;;;;;;;4.85;63.45;100551.91;449193;116;922599;-84
2022/02/19 00:33:23;;;;;;;6.61;5.68;;;;;;;4.85;63.41;100549.20;449282;117;923287;-84
2022/02/19 00:34:26;;;;;;;10.08;6.68;;;;;;;4.86;63.30;100556.27;449556;115;930695;-83
2022/02/19 00:35:31;;;;;;;10.27;5.99;;;;;;;4.87;63.21;100561.50;446980;117;923190;-86
2022/02/19 00:36:35;;;;;;;8.11;6.11;;;;;;;4.87;63.14;100563.35;442703;119;922595;-83
2022/02/19 00:37:38;;;;;;;6.23;5.49;;;;;;;4.88;63.00;100562.34;451306;117;922992;-84
2022/02/19 00:38:41;;;;;;;6.81;6.16;;;;;;;4.86;62.89;100559.81;451070;115;922678;-84
2022/02/19 00:39:44;;;;;;;6.89;5.89;;;;;;;4.87;62.83;100550.69;443030;119;922293;-84
2022/02/19 00:40:48;;;;;;;10.23;5.26;;;;;;;4.88;62.85;100559.64;449059;117;922869;-85
2022/02/19 00:41:52;;;;;;;5.73;5.22;;;;;;;4.89;62.85;100558.63;438839;118;923042;-83
2022/02/19 00:42:55;;;;;;;6.96;5.72;;;;;;;4.89;62.80;100564.03;450104;115;922985;-84
2022/02/19 00:43:58;;;;;;;9.12;5.19;;;;;;;4.90;62.79;100573.82;449252;117;922758;-84
2022/02/19 00:45:03;;;;;;;6.31;5.49;;;;;;;4.91;62.71;100581.72;442231;117;922692;-84
2022/02/19 00:46:07;;;;;;;6.20;5.54;;;;;;;4.91;62.56;100576.32;449017;116;930716;-84
2022/02/19 00:47:10;;;;;;;5.05;4.55;;;;;;;4.92;62.56;100577.16;444025;116;922566;-85
2022/02/19 00:48:15;;;;;;;5.99;4.84;;;;;;;4.92;62.52;100571.77;453154;116;922957;-85
2022/02/19 00:49:20;;;;;;;4.53;3.82;;;;;;;4.93;62.46;100581.55;443493;116;930613;-84
2022/02/19 00:50:24;;;;;;;6.16;3.56;;;;;;;4.93;62.34;100579.70;461810;113;922573;-84
2022/02/19 00:51:29;;;;;;;5.02;3.73;;;;;;;4.90;62.21;100580.06;461556;113;923652;-85
2022/02/19 00:52:32;;;;;;;5.39;4.36;;;;;;;4.90;62.33;100579.22;462048;113;922843;-83
2022/02/19 00:53:35;;;;;;;7.89;4.39;;;;;;;4.89;62.42;100575.68;460273;113;930531;-84
2022/02/19 00:54:38;;;;;;;4.38;3.98;;;;;;;4.89;62.45;100580.23;460625;113;922529;-84
2022/02/19 00:55:42;;;;;;;6.06;3.60;;;;;;;4.88;62.39;100576.69;461948;113;922646;-84
2022/02/19 00:56:46;;;;;;;7.08;4.16;;;;;;;4.88;62.29;100581.25;461276;113;930849;-84
2022/02/19 00:57:50;;;;;;;9.63;4.87;;;;;;;4.88;62.25;100578.55;460163;113;922572;-85
2022/02/19 00:58:53;;;;;;;8.49;4.42;;;;;;;4.88;62.19;100581.25;461194;113;922709;-83
2022/02/19 00:59:57;;;;;;;5.56;4.28;;;;;;;4.87;62.19;100591.21;452958;116;930709;-84
2022/02/19 01:01:00;;;;;;;5.62;4.33;;;;;;;4.87;62.18;100583.11;451239;115;922954;-84
2022/02/19 01:02:06;;;;;;;5.73;3.94;;;;;;;4.87;62.23;100590.37;460137;113;922964;-84
2022/02/19 01:03:11;;;;;;;5.29;3.45;;;;;;;4.88;62.21;100592.05;460714;113;922509;-84
2022/02/19 01:04:14;;;;;;;4.56;3.71;;;;;;;4.88;62.25;100597.45;461685;113;922541;-83
2022/02/19 01:05:17;;;;;;;5.52;4.01;;;;;;;4.89;62.19;100593.75;461577;113;922884;-84
2022/02/19 01:06:22;;;;;;;4.87;3.74;;;;;;;4.89;62.17;100601.84;461710;113;923024;-84
2022/02/19 01:07:25;;;;;;;4.34;3.38;;;;;;;4.88;62.20;100594.76;462203;113;922702;-84
2022/02/19 01:08:28;;;;;;;5.14;3.25;;;;;;;4.89;62.19;100597.29;463174;113;922528;-83
2022/02/19 01:09:33;;;;;;;4.25;3.64;;;;;;;4.90;62.25;100598.14;461287;113;922576;-84
2022/02/19 01:10:37;;;;;;;6.16;3.36;;;;;;;4.91;62.26;100591.69;461584;113;923043;-84
2022/02/19 01:11:40;;;;;;;4.78;3.48;;;;;;;4.91;62.26;100595.23;452319;116;923178;-83
2022/02/19 01:12:44;;;;;;;4.23;3.29;;;;;;;4.92;62.32;100601.48;444941;117;922724;-84
2022/02/19 01:13:48;;;;;;;4.56;3.25;;;;;;;4.93;62.26;100601.31;450426;114;922521;-83
2022/02/19 01:14:52;;;;;;;4.54;3.51;;;;;;;4.95;62.27;100609.25;460860;112;922730;-83
2022/02/19 01:15:57;;;;;;;7.01;3.83;;;;;;;4.96;62.26;100608.23;461069;113;922816;-85
2022/02/19 01:17:00;;;;;;;3.62;3.29;;;;;;;4.97;62.30;100604.48;461372;113;922578;-82
2022/02/19 01:18:04;;;;;;;4.33;3.11;;;;;;;4.98;62.30;100607.02;462315;113;922699;-84
2022/02/19 01:19:06;;;;;;;3.48;3.18;;;;;;;4.99;62.29;100607.86;460869;112;922799;-84
2022/02/19 01:20:11;;;;;;;4.39;3.20;;;;;;;4.98;62.25;100612.42;460622;113;923117;-84
2022/02/19 01:21:18;;;;;;;4.10;3.70;;;;;;;4.99;62.26;100610.56;460597;113;930500;-82
2022/02/19 01:22:21;;;;;;;4.11;3.17;;;;;;;4.99;62.25;100613.27;461696;113;922588;-83
2022/02/19 01:23:25;;;;;;;4.02;3.01;;;;;;;5.00;62.26;100617.66;460629;112;922638;-82
2022/02/19 01:24:28;;;;;;;4.07;3.45;;;;;;;5.01;62.28;100613.94;462483;113;922950;-83
2022/02/19 01:25:33;;;;;;;5.43;3.88;;;;;;;5.02;62.34;100618.30;461177;113;922507;-82
2022/02/19 01:26:37;;;;;;;3.85;3.23;;;;;;;5.02;62.36;100616.44;461430;113;922659;-83
2022/02/19 01:27:41;;;;;;;4.16;3.08;;;;;;;5.04;62.42;100618.98;454787;115;923085;-82
2022/02/19 01:28:44;;;;;;;3.27;2.94;;;;;;;5.06;62.41;100619.66;455088;116;930597;-82
2022/02/19 01:29:47;;;;;;;4.33;3.32;;;;;;;5.09;62.37;100623.84;461826;113;922944;-84
2022/02/19 01:30:51;;;;;;;4.49;3.39;;;;;;;5.09;62.34;100634.66;462455;113;922866;-84
2022/02/19 01:31:54;;;;;;;6.60;3.59;;;;;;;5.11;62.20;100630.77;461635;113;930684;-82
2022/02/19 01:32:58;;;;;;;8.85;3.78;;;;;;;5.10;62.18;100626.38;461675;113;923159;-83
2022/02/19 01:34:03;;;;;;;7.12;3.48;;;;;;;5.12;62.12;100628.91;455526;114;923489;-84
2022/02/19 01:35:07;;;;;;;5.06;3.66;;;;;;;5.13;62.11;100636.81;448031;116;930586;-83
2022/02/19 01:36:12;;;;;;;7.22;3.68;;;;;;;5.14;62.09;100626.84;451605;114;922689;-84
2022/02/19 01:37:17;;;;;;;8.75;3.75;;;;;;;5.14;62.10;100632.25;460583;113;922572;-84
2022/02/19 01:38:24;;;;;;;5.16;3.70;;;;;;;5.14;62.04;100633.09;460984;113;922587;-84
2022/02/19 01:39:29;;;;;;;4.72;3.35;;;;;;;5.16;62.00;100622.11;461493;113;922667;-84
2022/02/19 01:40:34;;;;;;;8.18;3.71;;;;;;;5.16;62.03;100624.82;461319;113;922556;-83
2022/02/19 01:41:38;;;;;;;9.62;3.42;;;;;;;5.17;62.06;100629.21;460798;113;922583;-83
2022/02/19 01:42:41;;;;;;;5.92;4.30;;;;;;;5.17;62.00;100627.35;462454;113;922545;-84
2022/02/19 01:43:44;;;;;;;4.19;3.65;;;;;;;5.18;62.08;100625.49;460978;113;923256;-84
2022/02/19 01:44:51;;;;;;;6.35;3.85;;;;;;;5.19;62.02;100627.15;462118;113;923082;-84
2022/02/19 01:45:54;;;;;;;5.61;3.91;;;;;;;5.18;61.95;100623.63;461789;113;922502;-83
2022/02/19 01:46:58;;;;;;;8.65;4.48;;;;;;;5.19;61.94;100621.74;461691;112;922607;-82
2022/02/19 01:48:01;;;;;;;5.99;3.91;;;;;;;5.18;61.92;100628.20;460578;113;923623;-83
2022/02/19 01:49:05;;;;;;;6.70;3.88;;;;;;;5.18;61.98;100620.09;461451;113;922678;-84
2022/02/19 01:50:10;;;;;;;6.50;4.09;;;;;;;5.19;62.01;100622.59;463275;113;922649;-84
2022/02/19 01:51:14;;;;;;;4.07;3.54;;;;;;;5.19;62.07;100629.85;461373;113;922736;-84
2022/02/19 01:52:18;;;;;;;4.44;3.69;;;;;;;5.19;62.04;100622.59;461880;113;922529;-85
2022/02/19 01:53:22;;;;;;;6.53;4.09;;;;;;;5.21;61.98;100627.83;461728;113;922978;-83
2022/02/19 01:54:28;;;;;;;6.48;3.86;;;;;;;5.21;61.93;100622.42;459542;113;922815;-84
2022/02/19 01:55:35;;;;;;;5.59;3.59;;;;;;;5.22;61.98;100624.11;461337;113;923033;-84
2022/02/19 01:56:59;;;;;;;5.98;4.09;;;;;;;5.21;61.96;100628.67;461435;112;922512;-82
2022/02/19 01:58:13;;;;;;;4.22;3.84;;;;;;;5.20;61.90;100626.98;462011;113;922569;-85
2022/02/19 01:59:35;;;;;;;4.78;4.03;;;;;;;5.17;61.91;100626.51;461403;113;922704;-82
2022/02/19 02:00:50;;;;;;;4.64;4.17;;;;;;;5.13;61.96;100623.30;442896;113;922817;-84
2022/02/19 02:02:01;;;;;;;4.19;3.81;;;;;;;5.10;61.95;100631.78;446651;116;923530;-82
2022/02/19 02:03:06;;;;;;;4.67;4.24;;;;;;;5.07;61.99;100631.30;459484;113;922584;-84
2022/02/19 02:04:14;;;;;;;6.14;4.61;;;;;;;5.04;62.10;100637.89;461349;113;922558;-83
2022/02/19 02:05:17;;;;;;;5.77;5.22;;;;;;;5.03;62.15;100634.34;460558;113;922394;-81
2022/02/19 02:06:24;;;;;;;6.36;5.69;;;;;;;5.02;62.15;100640.77;462760;113;930516;-84
2022/02/19 02:07:27;;;;;;;5.98;5.38;;;;;;;5.02;62.14;100640.77;461595;113;922667;-84
2022/02/19 02:08:30;;;;;;;5.58;5.09;;;;;;;5.00;62.23;100653.63;453552;115;922631;-83
2022/02/19 02:09:36;;;;;;;5.94;5.09;;;;;;;4.99;62.28;100649.23;453615;114;922878;-85
2022/02/19 02:10:39;;;;;;;5.78;5.19;;;;;;;5.00;62.23;100650.93;453114;115;923267;-83
2022/02/19 02:11:47;;;;;;;4.13;3.62;;;;;;;4.99;62.26;100657.34;453595;114;922517;-82
2022/02/19 02:12:50;;;;;;;5.18;4.54;;;;;;;4.99;62.21;100653.80;451998;116;923277;-83
2022/02/19 02:13:54;;;;;;;6.03;5.29;;;;;;;5.00;62.21;100655.48;452572;116;923073;-84
2022/02/19 02:14:59;;;;;;;6.35;5.78;;;;;;;5.00;62.21;100666.30;461074;113;922740;-81
2022/02/19 02:16:04;;;;;;;6.20;5.61;;;;;;;4.99;62.37;100670.01;459909;113;922615;-81
2022/02/19 02:17:12;;;;;;;7.46;6.76;;;;;;;4.98;62.26;100674.57;461367;113;922743;-83
2022/02/19 02:18:16;;;;;;;7.92;7.08;;;;;;;4.98;62.26;100674.57;462203;113;922656;-81
2022/02/19 02:19:19;;;;;;;10.07;9.29;;;;;;;4.98;62.19;100671.02;453088;116;922701;-83
2022/02/19 02:20:25;;;;;;;9.75;8.87;;;;;;;4.98;62.28;100677.27;452716;113;922787;-80
2022/02/19 02:21:29;;;;;;;6.46;5.86;;;;;;;4.96;62.33;100679.30;462516;113;922916;-84
2022/02/19 02:22:32;;;;;;;6.12;5.51;;;;;;;4.97;62.30;100677.44;460932;113;922654;-81
2022/02/19 02:23:35;;;;;;;4.84;4.36;;;;;;;4.97;62.36;100689.09;461942;112;922606;-84
2022/02/19 02:24:39;;;;;;;4.39;3.99;;;;;;;4.97;62.40;100682.84;455037;115;930667;-84
2022/02/19 02:25:44;;;;;;;4.81;4.32;;;;;;;4.97;62.39;100672.88;455201;114;930696;-82
2022/02/19 02:26:50;;;;;;;4.28;3.91;;;;;;;4.98;62.42;100679.98;461021;113;922522;-84
2022/02/19 02:27:56;;;;;;;4.03;3.63;;;;;;;4.98;62.46;100679.98;461046;113;922590;-86
2022/02/19 02:29:01;;;;;;;4.34;3.92;;;;;;;5.00;62.58;100680.66;461285;113;922655;-84
2022/02/19 02:30:06;;;;;;;4.54;4.09;;;;;;;5.00;62.58;100680.66;461397;113;922574;-83
2022/02/19 02:31:11;;;;;;;5.26;3.77;;;;;;;5.00;62.48;100669.00;460938;113;930651;-83
2022/02/19 02:32:15;;;;;;;4.41;4.01;;;;;;;5.00;62.54;100672.55;461102;113;922621;-84
2022/02/19 02:33:21;;;;;;;4.44;3.62;;;;;;;5.00;62.55;100669.84;461619;113;922461;-83
2022/02/19 02:34:26;;;;;;;4.60;4.20;;;;;;;5.00;62.56;100671.70;461175;113;922834;-82
2022/02/19 02:35:30;;;;;;;4.78;4.28;;;;;;;5.00;62.58;100682.51;460307;113;922692;-82
2022/02/19 02:36:33;;;;;;;4.51;4.11;;;;;;;4.99;62.61;100680.81;460902;113;922647;-84
2022/02/19 02:37:36;;;;;;;4.97;4.47;;;;;;;4.99;62.55;100694.33;460813;113;922912;-82
2022/02/19 02:38:39;;;;;;;4.58;4.17;;;;;;;4.97;62.57;100694.50;461865;113;923018;-83
2022/02/19 02:39:43;;;;;;;5.42;4.90;;;;;;;4.97;62.54;100693.65;462384;113;923107;-83
2022/02/19 02:40:47;;;;;;;4.58;4.10;;;;;;;4.96;62.62;100694.70;460881;113;923163;-86
2022/02/19 02:41:51;;;;;;;4.26;3.86;;;;;;;4.95;62.59;100690.30;453258;115;923129;-84
2022/02/19 02:42:54;;;;;;;4.31;3.91;;;;;;;4.94;62.59;100699.42;452707;114;923001;-83
2022/02/19 02:43:57;;;;;;;4.26;3.72;;;;;;;4.92;62.52;100691.48;462429;113;922723;-82
2022/02/19 02:45:01;;;;;;;4.04;3.66;;;;;;;4.90;62.55;100692.69;461912;113;922595;-84
2022/02/19 02:46:06;;;;;;;4.68;4.16;;;;;;;4.88;62.60;100700.97;460076;113;922958;-83
2022/02/19 02:47:10;;;;;;;4.14;3.48;;;;;;;4.86;62.56;100705.69;462336;113;923106;-84
2022/02/19 02:48:13;;;;;;;4.28;3.74;;;;;;;4.83;62.59;100702.50;461573;113;930557;-83
2022/02/19 02:49:16;;;;;;;4.55;3.69;;;;;;;4.80;62.62;100698.28;462297;113;922565;-82
2022/02/19 02:50:21;;;;;;;4.25;3.81;;;;;;;4.78;62.70;100700.34;462009;113;922594;-84
2022/02/19 02:51:24;;;;;;;4.23;3.68;;;;;;;4.76;62.84;100704.20;461197;113;922834;-82
2022/02/19 02:52:27;;;;;;;4.17;3.86;;;;;;;4.74;62.90;100709.78;461890;113;930553;-82
2022/02/19 02:53:30;;;;;;;5.36;4.30;;;;;;;4.72;63.01;100711.83;461960;113;922524;-82
2022/02/19 02:54:34;;;;;;;4.36;3.99;;;;;;;4.71;62.94;100706.59;462428;113;922520;-84
2022/02/19 02:55:37;;;;;;;4.68;4.22;;;;;;;4.69;62.88;100711.31;460711;112;922867;-83
2022/02/19 02:56:40;;;;;;;3.65;3.34;;;;;;;4.66;62.89;100717.92;461268;113;922685;-82
2022/02/19 02:57:44;;;;;;;4.55;4.15;;;;;;;4.63;62.96;100702.89;461582;113;922630;-81
2022/02/19 02:58:47;;;;;;;4.61;4.08;;;;;;;4.61;63.06;100709.50;460358;113;923167;-83
2022/02/19 02:59:50;;;;;;;3.97;3.60;;;;;;;4.59;63.13;100717.77;462047;113;922783;-83
2022/02/19 03:00:54;;;;;;;5.44;4.29;;;;;;;4.56;63.22;100715.42;460788;113;922629;-84
2022/02/19 03:01:58;;;;;;;4.24;3.94;;;;;;;4.54;63.30;100720.14;460983;113;930461;-84
2022/02/19 03:03:01;;;;;;;4.10;3.71;;;;;;;4.52;63.26;100714.06;460211;113;930626;-83
2022/02/19 03:04:05;;;;;;;3.68;3.34;;;;;;;4.50;63.31;100717.97;461911;113;922652;-83
2022/02/19 03:05:09;;;;;;;4.64;4.21;;;;;;;4.47;63.36;100713.73;460771;113;922933;-84
2022/02/19 03:06:14;;;;;;;4.09;3.71;;;;;;;4.44;63.33;100714.09;460539;113;930661;-83
2022/02/19 03:07:22;;;;;;;4.99;4.51;;;;;;;4.41;63.35;100714.42;460644;113;922554;-81
2022/02/19 03:08:25;;;;;;;3.85;3.46;;;;;;;4.40;63.45;100714.62;463533;113;922376;-82
2022/02/19 03:09:29;;;;;;;4.44;4.08;;;;;;;4.38;63.58;100711.23;462268;113;922543;-82
2022/02/19 03:10:33;;;;;;;4.16;3.46;;;;;;;4.38;63.64;100719.34;462069;113;922457;-81
2022/02/19 03:11:36;;;;;;;4.22;3.72;;;;;;;4.36;63.72;100716.80;461688;113;922513;-84
2022/02/19 03:12:39;;;;;;;4.30;3.90;;;;;;;4.35;63.75;100712.44;459570;114;922705;-83
2022/02/19 03:13:43;;;;;;;5.21;4.71;;;;;;;4.34;63.72;100716.14;459837;113;923945;-82
2022/02/19 03:14:46;;;;;;;5.53;4.94;;;;;;;4.33;63.79;100722.55;461233;113;930945;-82
2022/02/19 03:15:50;;;;;;;5.73;5.23;;;;;;;4.32;63.76;100720.86;453773;116;923196;-82
2022/02/19 03:16:53;;;;;;;6.76;5.16;;;;;;;4.32;63.84;100712.77;454203;114;922645;-83
2022/02/19 03:17:56;;;;;;;5.46;4.97;;;;;;;4.31;63.81;100716.47;457009;115;922865;-83
2022/02/19 03:19:00;;;;;;;6.07;5.27;;;;;;;4.30;63.86;100709.38;456872;114;922674;-86
2022/02/19 03:20:05;;;;;;;6.73;6.09;;;;;;;4.29;63.88;100712.28;461424;113;928903;-81
2022/02/19 03:21:09;;;;;;;6.57;5.92;;;;;;;4.27;63.91;100712.44;461447;113;922611;-83
2022/02/19 03:22:13;;;;;;;6.76;6.14;;;;;;;4.25;63.94;100710.91;461012;113;923007;-84
2022/02/19 03:23:16;;;;;;;7.77;6.97;;;;;;;4.23;63.98;100713.80;457434;114;930621;-83
2022/02/19 03:24:19;;;;;;;7.11;6.08;;;;;;;4.20;64.01;100722.22;457956;113;922524;-84
2022/02/19 03:25:22;;;;;;;7.67;6.31;;;;;;;4.17;64.00;100720.72;451003;116;922902;-82
2022/02/19 03:26:28;;;;;;;8.01;7.08;;;;;;;4.15;63.96;100719.19;460359;113;923524;-81
2022/02/19 03:27:33;;;;;;;9.41;7.42;;;;;;;4.12;64.10;100715.00;460914;113;922628;-84
2022/02/19 03:28:38;;;;;;;8.93;8.04;;;;;;;4.09;64.18;100707.22;459725;113;923091;-83
2022/02/19 03:29:43;;;;;;;9.71;8.69;;;;;;;4.06;64.22;100707.58;459581;113;922546;-82
2022/02/19 03:30:46;;;;;;;8.87;7.99;;;;;;;4.06;64.29;100720.22;461686;113;923318;-82
2022/02/19 03:32:00;;;;;;;8.72;7.87;;;;;;;4.03;64.39;100718.69;458716;113;931016;-81
2022/02/19 03:33:05;;;;;;;11.97;9.34;;;;;;;4.01;64.47;100720.73;461757;113;922693;-82
2022/02/19 03:34:08;;;;;;;9.51;8.48;;;;;;;3.99;64.50;100721.90;461256;113;930341;-84
2022/02/19 03:35:12;;;;;;;12.40;7.89;;;;;;;3.97;64.50;100722.06;462057;114;923008;-83
2022/02/19 03:36:16;;;;;;;8.50;7.67;;;;;;;3.96;64.57;100725.80;460994;113;923311;-81
2022/02/19 03:37:20;;;;;;;9.80;8.53;;;;;;;3.94;64.63;100722.41;460491;113;930685;-83
2022/02/19 03:38:23;;;;;;;8.60;7.87;;;;;;;3.92;64.74;100719.03;461802;113;931012;-83
2022/02/19 03:39:30;;;;;;;9.18;8.14;;;;;;;3.92;64.76;100721.73;450914;115;922621;-81
2022/02/19 03:40:34;;;;;;;7.92;7.19;;;;;;;3.92;64.84;100721.73;454817;114;923009;-82
2022/02/19 03:41:37;;;;;;;8.77;7.87;;;;;;;3.91;64.88;100721.91;462333;113;930641;-83
2022/02/19 03:42:43;;;;;;;8.69;7.82;;;;;;;3.90;64.88;100723.77;461958;113;930504;-83
2022/02/19 03:43:46;;;;;;;7.64;6.98;;;;;;;3.89;64.88;100715.84;461816;113;922709;-81
2022/02/19 03:44:50;;;;;;;9.78;7.16;;;;;;;3.89;64.88;100721.23;462000;113;922789;-80
2022/02/19 03:45:54;;;;;;;7.72;7.02;;;;;;;3.87;64.92;100729.48;461873;113;922817;-82
2022/02/19 03:47:02;;;;;;;8.40;7.58;;;;;;;3.86;64.98;100726.98;457391;113;922807;-84
2022/02/19 03:48:25;;;;;;;6.97;6.29;;;;;;;3.86;64.95;100724.28;462302;112;922640;-81
2022/02/19 03:49:28;;;;;;;7.87;6.54;;;;;;;3.83;64.98;100728.14;460684;113;922601;-82
2022/02/19 03:50:32;;;;;;;7.31;6.66;;;;;;;3.82;65.00;100723.75;459710;114;922459;-83
2022/02/19 03:51:35;;;;;;;7.24;6.38;;;;;;;3.80;65.09;100730.34;459013;113;922937;-83
2022/02/19 03:52:39;;;;;;;7.51;6.76;;;;;;;3.79;65.06;100734.89;460453;114;930613;-82
2022/02/19 03:53:44;;;;;;;6.83;6.23;;;;;;;3.77;65.10;100735.05;459190;114;924028;-82
2022/02/19 03:54:48;;;;;;;7.16;6.45;;;;;;;3.76;65.10;100736.05;445594;117;923052;-82
2022/02/19 03:55:53;;;;;;;6.70;6.10;;;;;;;3.75;65.14;100738.91;455690;113;922679;-83
2022/02/19 03:56:56;;;;;;;6.48;5.83;;;;;;;3.74;65.15;100732.70;460524;114;930667;-82
2022/02/19 03:57:59;;;;;;;7.94;6.54;;;;;;;3.74;65.11;100735.39;460717;114;922493;-84
2022/02/19 03:59:03;;;;;;;6.65;5.99;;;;;;;3.73;65.13;100735.55;459916;114;922572;-83
2022/02/19 04:00:11;;;;;;;7.17;6.47;;;;;;;3.72;65.11;100734.70;459875;113;922890;-82
2022/02/19 04:01:17;;;;;;;6.84;6.11;;;;;;;3.71;65.09;100741.10;460010;114;922566;-84
2022/02/19 04:02:21;;;;;;;7.44;6.76;;;;;;;3.71;65.08;100749.19;451335;116;923156;-82
2022/02/19 04:03:25;;;;;;;7.43;6.76;;;;;;;3.69;64.93;100745.80;451863;113;922989;-83
2022/02/19 04:04:28;;;;;;;6.24;5.70;;;;;;;3.69;64.93;100745.80;459579;114;930558;-84
2022/02/19 04:05:32;;;;;;;6.26;5.70;;;;;;;3.67;65.00;100742.45;459987;113;922687;-82
2022/02/19 04:06:35;;;;;;;6.69;6.09;;;;;;;3.67;65.08;100739.76;459609;114;922866;-83
2022/02/19 04:07:38;;;;;;;6.78;6.12;;;;;;;3.67;65.16;100736.22;459485;113;922560;-81
2022/02/19 04:08:43;;;;;;;8.16;6.95;;;;;;;3.66;65.19;100743.46;459096;113;922685;-83
2022/02/19 04:09:47;;;;;;;8.11;7.33;;;;;;;3.67;65.21;100747.84;459247;114;922577;-84
2022/02/19 04:10:51;;;;;;;7.81;7.11;;;;;;;3.67;65.25;100737.06;460513;113;922515;-81
2022/02/19 04:11:54;;;;;;;8.04;7.34;;;;;;;3.66;65.24;100743.46;459587;113;922547;-84
2022/02/19 04:12:59;;;;;;;8.79;7.99;;;;;;;3.65;65.22;100739.07;460171;114;922632;-83
2022/02/19 04:14:07;;;;;;;8.77;7.98;;;;;;;3.65;65.28;100744.47;457763;114;922699;-82
2022/02/19 04:15:21;;;;;;;7.58;6.88;;;;;;;3.66;65.32;100745.31;457505;113;923151;-81
2022/02/19 04:16:26;;;;;;;7.12;6.43;;;;;;;3.65;65.27;100741.77;458769;113;923042;-81
2022/02/19 04:17:31;;;;;;;7.25;6.60;;;;;;;3.64;65.26;100737.38;458456;114;922607;-81
2022/02/19 04:18:34;;;;;;;5.79;5.29;;;;;;;3.63;65.29;100742.96;459307;114;922525;-84
2022/02/19 04:19:37;;;;;;;6.51;5.93;;;;;;;3.62;65.25;100738.57;452525;115;929586;-82
2022/02/19 04:20:41;;;;;;;6.51;5.91;;;;;;;3.61;65.30;100751.20;453264;115;923033;-82
2022/02/19 04:21:46;;;;;;;6.95;6.35;;;;;;;3.61;65.30;100748.51;460041;114;923238;-85
2022/02/19 04:22:51;;;;;;;5.71;5.21;;;;;;;3.61;65.33;100742.27;459614;114;922549;-81
2022/02/19 04:23:54;;;;;;;5.99;5.39;;;;;;;3.60;65.38;100744.12;459350;113;922788;-83
2022/02/19 04:24:57;;;;;;;6.21;5.57;;;;;;;3.60;65.33;100752.20;459634;114;922817;-83
2022/02/19 04:26:03;;;;;;;6.84;5.33;;;;;;;3.61;65.27;100753.91;459126;114;930460;-84
2022/02/19 04:27:08;;;;;;;7.12;5.99;;;;;;;3.60;65.20;100756.75;459408;113;923102;-84
2022/02/19 04:28:12;;;;;;;10.03;6.34;;;;;;;3.57;65.19;100755.25;460397;113;922856;-84
2022/02/19 04:29:15;;;;;;;6.79;6.21;;;;;;;3.56;65.12;100763.49;452150;116;922726;-83
2022/02/19 04:30:20;;;;;;;6.99;6.26;;;;;;;3.54;65.14;100766.34;451054;115;922506;-83
2022/02/19 04:31:25;;;;;;;7.21;6.59;;;;;;;3.53;65.14;100766.53;459908;114;922697;-82
2022/02/19 04:32:30;;;;;;;6.87;6.21;;;;;;;3.51;65.09;100766.69;443573;118;923339;-83
2022/02/19 04:33:34;;;;;;;7.04;6.31;;;;;;;3.49;65.14;100768.69;441325;118;923103;-82
2022/02/19 04:34:38;;;;;;;7.84;5.95;;;;;;;3.49;65.15;100770.55;445107;116;922558;-84
2022/02/19 04:35:43;;;;;;;6.91;6.25;;;;;;;3.48;65.20;100774.24;450056;116;922573;-82
2022/02/19 04:36:47;;;;;;;6.82;6.07;;;;;;;3.47;65.24;100776.13;444561;117;930712;-85
2022/02/19 04:37:51;;;;;;;7.08;6.45;;;;;;;3.47;65.26;100784.20;439904;118;922710;-84
2022/02/19 04:38:54;;;;;;;8.17;7.38;;;;;;;3.46;65.28;100777.13;445648;118;930707;-82
2022/02/19 04:40:00;;;;;;;7.36;6.73;;;;;;;3.46;65.24;100779.82;451220;116;925738;-83
2022/02/19 04:41:05;;;;;;;8.53;7.68;;;;;;;3.46;65.25;100778.97;445373;116;922776;-81
2022/02/19 04:42:08;;;;;;;9.13;8.31;;;;;;;3.44;65.19;100779.13;446039;117;922624;-81
2022/02/19 04:43:11;;;;;;;8.48;7.61;;;;;;;3.43;65.12;100788.22;445017;118;922516;-82
2022/02/19 04:44:16;;;;;;;8.92;8.04;;;;;;;3.42;65.12;100786.52;445991;116;923108;-84
2022/02/19 04:45:21;;;;;;;8.24;7.51;;;;;;;3.41;65.11;100779.47;446062;116;923304;-83
2022/02/19 04:46:31;;;;;;;8.68;7.89;;;;;;;3.40;65.14;100787.71;445572;118;922629;-82
2022/02/19 04:47:35;;;;;;;8.73;7.91;;;;;;;3.38;65.20;100787.02;445797;118;922526;-81
2022/02/19 04:48:38;;;;;;;9.03;8.07;;;;;;;3.38;65.31;100785.17;445658;116;923022;-85
2022/02/19 04:49:41;;;;;;;8.08;7.29;;;;;;;3.38;65.35;100787.02;445855;116;923161;-82
2022/02/19 04:50:44;;;;;;;7.40;6.73;;;;;;;3.38;65.40;100789.72;441502;119;922879;-83
2022/02/19 04:51:50;;;;;;;7.94;7.13;;;;;;;3.38;65.41;100795.10;453803;114;922810;-83
2022/02/19 04:52:54;;;;;;;7.14;6.46;;;;;;;3.38;65.47;100795.10;460061;113;922683;-84
2022/02/19 04:53:58;;;;;;;7.93;7.23;;;;;;;3.38;65.43;100795.10;453514;114;922624;-83
2022/02/19 04:55:02;;;;;;;7.79;7.07;;;;;;;3.37;65.38;100794.26;446541;116;922607;-84
2022/02/19 04:56:05;;;;;;;8.43;7.18;;;;;;;3.36;65.41;100796.10;451540;114;922963;-84
2022/02/19 04:57:08;;;;;;;8.26;7.46;;;;;;;3.35;65.40;100798.98;459303;113;930530;-84
2022/02/19 04:58:12;;;;;;;8.77;7.87;;;;;;;3.35;65.43;100791.75;451926;116;923175;-84
2022/02/19 04:59:15;;;;;;;11.21;8.09;;;;;;;3.35;65.46;100797.14;442879;117;922973;-86